sensor_id;sensor_type;location;lat;lon;timestamp;pressure;altitude;pressure_sealevel;temperature;humidity
7614;BME280;3848;42.016;23.098;2023-07-13T00:00:24;97357.72;;;23.44;100.00
7614;BME280;3848;42.016;23.098;2023-07-13T00:02:52;97352.25;;;23.34;100.00
7614;BME280;3848;42.016;23.098;2023-07-13T00:05:19;97360.44;;;23.27;100.00
7614;BME280;3848;42.016;23.098;2023-07-13T00:07:46;97358.34;;;23.18;100.00
7614;BME280;3848;42.016;23.098;2023-07-13T00:10:13;97344.38;;;23.04;100.00
7614;BME280;3848;42.016;23.098;2023-07-13T00:12:42;97303.28;;;22.65;100.00
7614;BME280;3848;42.016;23.098;2023-07-13T00:15:12;97351.75;;;22.96;100.00
7614;BME280;3848;42.016;23.098;2023-07-13T00:17:41;97346.88;;;22.90;100.00
7614;BME280;3848;42.016;23.098;2023-07-13T00:20:10;97350.47;;;22.88;100.00
7614;BME280;3848;42.016;23.098;2023-07-13T00:22:37;97348.88;;;22.85;100.00
7614;BME280;3848;42.016;23.098;2023-07-13T00:25:05;97352.53;;;22.81;100.00
7614;BME280;3848;42.016;23.098;2023-07-13T00:27:32;97347.97;;;22.86;100.00
7614;BME280;3848;42.016;23.098;2023-07-13T00:30:00;97344.28;;;22.90;100.00
7614;BME280;3848;42.016;23.098;2023-07-13T00:32:28;97340.53;;;22.96;100.00
7614;BME280;3848;42.016;23.098;2023-07-13T00:34:56;97347.78;;;22.89;100.00
7614;BME280;3848;42.016;23.098;2023-07-13T00:37:23;97346.69;;;22.77;100.00
7614;BME280;3848;42.016;23.098;2023-07-13T00:39:50;97356.03;;;22.80;100.00
7614;BME280;3848;42.016;23.098;2023-07-13T00:42:17;97358.50;;;22.83;100.00
7614;BME280;3848;42.016;23.098;2023-07-13T00:45:04;97355.19;;;22.79;100.00
7614;BME280;3848;42.016;23.098;2023-07-13T00:47:31;97357.03;;;22.77;100.00
7614;BME280;3848;42.016;23.098;2023-07-13T00:49:58;97350.03;;;22.79;100.00
7614;BME280;3848;42.016;23.098;2023-07-13T00:52:26;97343.09;;;22.80;100.00
7614;BME280;3848;42.016;23.098;2023-07-13T00:54:54;97353.53;;;22.78;100.00
7614;BME280;3848;42.016;23.098;2023-07-13T00:57:21;97349.53;;;22.73;100.00
7614;BME280;3848;42.016;23.098;2023-07-13T00:59:52;97341.97;;;22.52;100.00
7614;BME280;3848;42.016;23.098;2023-07-13T01:02:22;97352.63;;;22.46;100.00
7614;BME280;3848;42.016;23.098;2023-07-13T01:04:49;97340.56;;;22.30;100.00
7614;BME280;3848;42.016;23.098;2023-07-13T01:07:16;97351.22;;;22.24;100.00
7614;BME280;3848;42.016;23.098;2023-07-13T01:09:44;97350.13;;;22.12;100.00
7614;BME280;3848;42.016;23.098;2023-07-13T01:12:11;97349.38;;;22.10;100.00
7614;BME280;3848;42.016;23.098;2023-07-13T01:14:39;97354.53;;;22.10;100.00
7614;BME280;3848;42.016;23.098;2023-07-13T01:17:08;97344.25;;;22.08;100.00
7614;BME280;3848;42.016;23.098;2023-07-13T01:19:39;97339.94;;;22.09;100.00
7614;BME280;3848;42.016;23.098;2023-07-13T01:22:09;97336.91;;;21.99;100.00
7614;BME280;3848;42.016;23.098;2023-07-13T01:24:37;97347.94;;;22.03;100.00
7614;BME280;3848;42.016;23.098;2023-07-13T01:27:05;97348.72;;;22.05;100.00
7614;BME280;3848;42.016;23.098;2023-07-13T01:29:33;97344.59;;;22.01;100.00
7614;BME280;3848;42.016;23.098;2023-07-13T01:32:07;97353.28;;;22.00;100.00
7614;BME280;3848;42.016;23.098;2023-07-13T01:34:34;97337.38;;;21.90;100.00
7614;BME280;3848;42.016;23.098;2023-07-13T01:37:01;97345.16;;;21.90;100.00
7614;BME280;3848;42.016;23.098;2023-07-13T01:39:29;97351.00;;;21.94;100.00
7614;BME280;3848;42.016;23.098;2023-07-13T01:41:57;97345.84;;;21.94;100.00
7614;BME280;3848;42.016;23.098;2023-07-13T01:44:24;97347.50;;;21.95;100.00
7614;BME280;3848;42.016;23.098;2023-07-13T01:46:51;97332.81;;;21.78;100.00
7614;BME280;3848;42.016;23.098;2023-07-13T01:49:18;97354.03;;;21.84;100.00
7614;BME280;3848;42.016;23.098;2023-07-13T01:51:44;97358.53;;;21.81;100.00
7614;BME280;3848;42.016;23.098;2023-07-13T01:54:11;97352.69;;;21.77;100.00
7614;BME280;3848;42.016;23.098;2023-07-13T01:56:39;97360.59;;;21.74;100.00
7614;BME280;3848;42.016;23.098;2023-07-13T01:59:07;97352.06;;;21.72;100.00
7614;BME280;3848;42.016;23.098;2023-07-13T02:01:34;97348.03;;;21.67;100.00
7614;BME280;3848;42.016;23.098;2023-07-13T02:04:00;97366.19;;;21.65;100.00
7614;BME280;3848;42.016;23.098;2023-07-13T02:06:27;97369.16;;;21.57;100.00
7614;BME280;3848;42.016;23.098;2023-07-13T02:08:54;97373.72;;;21.52;100.00
7614;BME280;3848;42.016;23.098;2023-07-13T02:11:21;97366.97;;;21.50;100.00
7614;BME280;3848;42.016;23.098;2023-07-13T02:13:49;97364.59;;;21.45;100.00
7614;BME280;3848;42.016;23.098;2023-07-13T02:16:16;97358.78;;;21.40;100.00
7614;BME280;3848;42.016;23.098;2023-07-13T02:18:42;97357.41;;;21.33;100.00
7614;BME280;3848;42.016;23.098;2023-07-13T02:21:09;97371.03;;;21.37;100.00
7614;BME280;3848;42.016;23.098;2023-07-13T02:23:36;97365.63;;;21.22;100.00
7614;BME280;3848;42.016;23.098;2023-07-13T02:26:03;97361.44;;;21.20;100.00
7614;BME280;3848;42.016;23.098;2023-07-13T02:28:30;97358.38;;;21.12;100.00
7614;BME280;3848;42.016;23.098;2023-07-13T02:31:06;97370.13;;;21.00;100.00
7614;BME280;3848;42.016;23.098;2023-07-13T02:33:33;97366.75;;;20.79;100.00
7614;BME280;3848;42.016;23.098;2023-07-13T02:36:00;97362.50;;;20.78;100.00
7614;BME280;3848;42.016;23.098;2023-07-13T02:38:27;97361.25;;;20.68;100.00
7614;BME280;3848;42.016;23.098;2023-07-13T02:40:53;97369.56;;;20.75;100.00
7614;BME280;3848;42.016;23.098;2023-07-13T02:43:20;97374.44;;;20.81;100.00
7614;BME280;3848;42.016;23.098;2023-07-13T02:45:47;97379.28;;;20.88;100.00
7614;BME280;3848;42.016;23.098;2023-07-13T02:48:15;97367.97;;;20.91;100.00
7614;BME280;3848;42.016;23.098;2023-07-13T02:50:44;97383.03;;;21.00;100.00
7614;BME280;3848;42.016;23.098;2023-07-13T02:53:11;97384.53;;;21.06;100.00
7614;BME280;3848;42.016;23.098;2023-07-13T02:55:38;97385.50;;;21.03;100.00
7614;BME280;3848;42.016;23.098;2023-07-13T02:58:06;97384.84;;;20.98;100.00
7614;BME280;3848;42.016;23.098;2023-07-13T03:00:32;97379.06;;;20.93;100.00
7614;BME280;3848;42.016;23.098;2023-07-13T03:02:59;97387.94;;;20.87;100.00
7614;BME280;3848;42.016;23.098;2023-07-13T03:05:27;97385.63;;;20.81;100.00
7614;BME280;3848;42.016;23.098;2023-07-13T03:07:54;97386.59;;;20.79;100.00
7614;BME280;3848;42.016;23.098;2023-07-13T03:10:21;97395.25;;;20.78;100.00
7614;BME280;3848;42.016;23.098;2023-07-13T03:12:48;97391.91;;;20.76;100.00
7614;BME280;3848;42.016;23.098;2023-07-13T03:15:15;97389.31;;;20.76;100.00
7614;BME280;3848;42.016;23.098;2023-07-13T03:17:41;97387.63;;;20.75;100.00
7614;BME280;3848;42.016;23.098;2023-07-13T03:20:09;97389.16;;;20.79;100.00
7614;BME280;3848;42.016;23.098;2023-07-13T03:22:37;97377.09;;;20.79;100.00
7614;BME280;3848;42.016;23.098;2023-07-13T03:25:05;97388.84;;;20.86;100.00
7614;BME280;3848;42.016;23.098;2023-07-13T03:27:31;97389.94;;;20.81;100.00
7614;BME280;3848;42.016;23.098;2023-07-13T03:29:58;97395.91;;;20.83;100.00
7614;BME280;3848;42.016;23.098;2023-07-13T03:32:25;97402.22;;;20.76;100.00
7614;BME280;3848;42.016;23.098;2023-07-13T03:34:52;97395.53;;;20.72;100.00
7614;BME280;3848;42.016;23.098;2023-07-13T03:37:18;97397.28;;;20.71;100.00
7614;BME280;3848;42.016;23.098;2023-07-13T03:39:46;97400.56;;;20.75;100.00
7614;BME280;3848;42.016;23.098;2023-07-13T03:42:14;97391.34;;;20.69;100.00
7614;BME280;3848;42.016;23.098;2023-07-13T03:44:41;97399.66;;;20.76;100.00
7614;BME280;3848;42.016;23.098;2023-07-13T03:47:11;97404.69;;;20.79;100.00
7614;BME280;3848;42.016;23.098;2023-07-13T03:49:38;97401.09;;;20.81;100.00
7614;BME280;3848;42.016;23.098;2023-07-13T03:52:05;97403.69;;;20.81;100.00
7614;BME280;3848;42.016;23.098;2023-07-13T03:54:32;97402.84;;;20.81;100.00
7614;BME280;3848;42.016;23.098;2023-07-13T03:57:00;97406.25;;;20.83;100.00
7614;BME280;3848;42.016;23.098;2023-07-13T03:59:27;97398.50;;;20.83;100.00
7614;BME280;3848;42.016;23.098;2023-07-13T04:01:54;97393.38;;;20.81;100.00
7614;BME280;3848;42.016;23.098;2023-07-13T04:04:21;97393.72;;;20.74;100.00
7614;BME280;3848;42.016;23.098;2023-07-13T04:06:48;97398.53;;;20.62;100.00
7614;BME280;3848;42.016;23.098;2023-07-13T04:09:14;97394.38;;;20.58;100.00
7614;BME280;3848;42.016;23.098;2023-07-13T04:11:41;97394.72;;;20.51;100.00
7614;BME280;3848;42.016;23.098;2023-07-13T04:14:09;97399.97;;;20.49;100.00
7614;BME280;3848;42.016;23.098;2023-07-13T04:16:36;97397.44;;;20.48;100.00
7614;BME280;3848;42.016;23.098;2023-07-13T04:19:03;97394.22;;;20.43;100.00
7614;BME280;3848;42.016;23.098;2023-07-13T04:21:31;97402.03;;;20.41;100.00
7614;BME280;3848;42.016;23.098;2023-07-13T04:23:58;97401.69;;;20.49;100.00
7614;BME280;3848;42.016;23.098;2023-07-13T04:26:24;97366.66;;;20.23;100.00
7614;BME280;3848;42.016;23.098;2023-07-13T04:28:51;97414.03;;;20.42;100.00
7614;BME280;3848;42.016;23.098;2023-07-13T04:31:20;97410.00;;;20.55;100.00
7614;BME280;3848;42.016;23.098;2023-07-13T04:33:47;97414.03;;;20.62;100.00
7614;BME280;3848;42.016;23.098;2023-07-13T04:36:14;97403.41;;;20.68;100.00
7614;BME280;3848;42.016;23.098;2023-07-13T04:39:03;97406.41;;;20.78;100.00
7614;BME280;3848;42.016;23.098;2023-07-13T04:41:30;97408.75;;;20.84;100.00
7614;BME280;3848;42.016;23.098;2023-07-13T04:44:04;97399.13;;;20.88;100.00
7614;BME280;3848;42.016;23.098;2023-07-13T04:46:32;97405.53;;;20.98;100.00
7614;BME280;3848;42.016;23.098;2023-07-13T04:48:59;97397.63;;;21.01;100.00
7614;BME280;3848;42.016;23.098;2023-07-13T04:51:26;97393.25;;;21.03;100.00
7614;BME280;3848;42.016;23.098;2023-07-13T04:53:52;97398.75;;;21.14;100.00
7614;BME280;3848;42.016;23.098;2023-07-13T04:56:19;97398.63;;;21.17;100.00
7614;BME280;3848;42.016;23.098;2023-07-13T04:58:46;97392.75;;;21.14;100.00
7614;BME280;3848;42.016;23.098;2023-07-13T05:01:12;97398.91;;;21.11;100.00
7614;BME280;3848;42.016;23.098;2023-07-13T05:03:41;97403.53;;;21.05;100.00
7614;BME280;3848;42.016;23.098;2023-07-13T05:06:08;97398.28;;;21.06;100.00
7614;BME280;3848;42.016;23.098;2023-07-13T05:08:36;97395.41;;;21.12;100.00
7614;BME280;3848;42.016;23.098;2023-07-13T05:11:04;97395.50;;;21.29;100.00
7614;BME280;3848;42.016;23.098;2023-07-13T05:13:31;97410.34;;;21.43;100.00
7614;BME280;3848;42.016;23.098;2023-07-13T05:15:59;97408.03;;;21.56;100.00
7614;BME280;3848;42.016;23.098;2023-07-13T05:18:26;97402.13;;;21.71;100.00
7614;BME280;3848;42.016;23.098;2023-07-13T05:20:59;97400.84;;;21.80;100.00
7614;BME280;3848;42.016;23.098;2023-07-13T05:23:27;97394.16;;;21.93;100.00
7614;BME280;3848;42.016;23.098;2023-07-13T05:25:54;97388.00;;;21.96;100.00
7614;BME280;3848;42.016;23.098;2023-07-13T05:28:21;97406.84;;;22.16;100.00
7614;BME280;3848;42.016;23.098;2023-07-13T05:30:48;97394.66;;;22.18;100.00
7614;BME280;3848;42.016;23.098;2023-07-13T05:33:15;97401.88;;;22.29;100.00
7614;BME280;3848;42.016;23.098;2023-07-13T05:35:42;97403.75;;;22.43;100.00
7614;BME280;3848;42.016;23.098;2023-07-13T05:38:10;97402.38;;;22.53;100.00
7614;BME280;3848;42.016;23.098;2023-07-13T05:40:37;97405.31;;;22.63;100.00
7614;BME280;3848;42.016;23.098;2023-07-13T05:43:04;97403.94;;;22.73;100.00
7614;BME280;3848;42.016;23.098;2023-07-13T05:45:31;97395.84;;;22.79;100.00
7614;BME280;3848;42.016;23.098;2023-07-13T05:47:58;97406.94;;;22.98;100.00
7614;BME280;3848;42.016;23.098;2023-07-13T05:50:25;97409.53;;;23.14;100.00
7614;BME280;3848;42.016;23.098;2023-07-13T05:52:52;97411.38;;;23.28;100.00
7614;BME280;3848;42.016;23.098;2023-07-13T05:55:21;97409.97;;;23.38;100.00
7614;BME280;3848;42.016;23.098;2023-07-13T05:57:47;97416.31;;;23.48;100.00
7614;BME280;3848;42.016;23.098;2023-07-13T06:00:15;97406.22;;;23.59;100.00
7614;BME280;3848;42.016;23.098;2023-07-13T06:02:42;97413.16;;;23.75;100.00
7614;BME280;3848;42.016;23.098;2023-07-13T06:05:09;97415.75;;;23.75;100.00
7614;BME280;3848;42.016;23.098;2023-07-13T06:07:36;97408.91;;;23.88;100.00
7614;BME280;3848;42.016;23.098;2023-07-13T06:10:03;97404.28;;;23.93;100.00
7614;BME280;3848;42.016;23.098;2023-07-13T06:12:31;97406.38;;;24.02;100.00
7614;BME280;3848;42.016;23.098;2023-07-13T06:14:58;97416.03;;;24.14;100.00
7614;BME280;3848;42.016;23.098;2023-07-13T06:17:25;97412.59;;;24.29;100.00
7614;BME280;3848;42.016;23.098;2023-07-13T06:19:52;97411.31;;;24.37;100.00
7614;BME280;3848;42.016;23.098;2023-07-13T06:22:19;97398.88;;;24.42;100.00
7614;BME280;3848;42.016;23.098;2023-07-13T06:24:45;97412.69;;;24.56;100.00
7614;BME280;3848;42.016;23.098;2023-07-13T06:27:12;97415.41;;;24.69;100.00
7614;BME280;3848;42.016;23.098;2023-07-13T06:29:40;97394.97;;;24.77;100.00
7614;BME280;3848;42.016;23.098;2023-07-13T06:32:10;97407.13;;;24.91;100.00
7614;BME280;3848;42.016;23.098;2023-07-13T06:34:37;97409.88;;;25.04;100.00
7614;BME280;3848;42.016;23.098;2023-07-13T06:37:05;97406.50;;;25.16;100.00
7614;BME280;3848;42.016;23.098;2023-07-13T06:39:32;97411.22;;;25.23;100.00
7614;BME280;3848;42.016;23.098;2023-07-13T06:41:59;97413.63;;;25.27;100.00
7614;BME280;3848;42.016;23.098;2023-07-13T06:44:25;97407.66;;;25.39;100.00
7614;BME280;3848;42.016;23.098;2023-07-13T06:46:54;97376.91;;;25.31;100.00
7614;BME280;3848;42.016;23.098;2023-07-13T06:49:21;97418.28;;;25.63;100.00
7614;BME280;3848;42.016;23.098;2023-07-13T06:51:48;97413.72;;;25.66;100.00
7614;BME280;3848;42.016;23.098;2023-07-13T06:54:15;97417.66;;;25.86;100.00
7614;BME280;3848;42.016;23.098;2023-07-13T06:56:41;97416.84;;;25.98;100.00
7614;BME280;3848;42.016;23.098;2023-07-13T06:59:08;97407.09;;;26.14;100.00
7614;BME280;3848;42.016;23.098;2023-07-13T07:01:35;97409.53;;;26.30;100.00
7614;BME280;3848;42.016;23.098;2023-07-13T07:04:04;97401.94;;;26.40;100.00
7614;BME280;3848;42.016;23.098;2023-07-13T07:06:31;97398.31;;;26.55;100.00
7614;BME280;3848;42.016;23.098;2023-07-13T07:08:58;97395.81;;;26.66;100.00
7614;BME280;3848;42.016;23.098;2023-07-13T07:11:25;97396.72;;;26.78;100.00
7614;BME280;3848;42.016;23.098;2023-07-13T07:13:53;97388.78;;;26.92;100.00
7614;BME280;3848;42.016;23.098;2023-07-13T07:16:20;97374.38;;;26.99;100.00
7614;BME280;3848;42.016;23.098;2023-07-13T07:18:47;97382.19;;;27.12;100.00
7614;BME280;3848;42.016;23.098;2023-07-13T07:21:16;97370.88;;;27.24;100.00
7614;BME280;3848;42.016;23.098;2023-07-13T07:23:43;97296.97;;;26.87;100.00
7614;BME280;3848;42.016;23.098;2023-07-13T07:26:10;97370.72;;;27.39;100.00
7614;BME280;3848;42.016;23.098;2023-07-13T07:28:37;97374.38;;;27.36;100.00
7614;BME280;3848;42.016;23.098;2023-07-13T07:31:04;97372.59;;;27.37;100.00
7614;BME280;3848;42.016;23.098;2023-07-13T07:33:32;97374.34;;;27.49;100.00
7614;BME280;3848;42.016;23.098;2023-07-13T07:35:59;97337.50;;;27.41;100.00
7614;BME280;3848;42.016;23.098;2023-07-13T07:38:27;97363.50;;;27.66;100.00
7614;BME280;3848;42.016;23.098;2023-07-13T07:40:54;97360.38;;;27.61;100.00
7614;BME280;3848;42.016;23.098;2023-07-13T07:43:21;97359.13;;;27.67;100.00
7614;BME280;3848;42.016;23.098;2023-07-13T07:45:48;97356.22;;;27.82;100.00
7614;BME280;3848;42.016;23.098;2023-07-13T07:48:14;97342.78;;;27.76;100.00
7614;BME280;3848;42.016;23.098;2023-07-13T07:50:41;97349.59;;;27.89;98.99
7614;BME280;3848;42.016;23.098;2023-07-13T07:53:08;97349.88;;;27.98;100.00
7614;BME280;3848;42.016;23.098;2023-07-13T07:55:37;97348.84;;;28.11;98.22
7614;BME280;3848;42.016;23.098;2023-07-13T07:58:04;97346.94;;;28.24;98.76
7614;BME280;3848;42.016;23.098;2023-07-13T08:00:32;97353.06;;;28.36;95.85
7614;BME280;3848;42.016;23.098;2023-07-13T08:03:00;97336.19;;;28.51;96.75
7614;BME280;3848;42.016;23.098;2023-07-13T08:05:27;97340.81;;;28.70;89.21
7614;BME280;3848;42.016;23.098;2023-07-13T08:07:54;97333.34;;;28.88;93.41
7614;BME280;3848;42.016;23.098;2023-07-13T08:10:21;97325.69;;;29.07;83.82
7614;BME280;3848;42.016;23.098;2023-07-13T08:12:49;97330.28;;;29.26;81.83
7614;BME280;3848;42.016;23.098;2023-07-13T08:15:19;97307.31;;;29.30;79.25
7614;BME280;3848;42.016;23.098;2023-07-13T08:17:47;97299.44;;;29.41;77.46
7614;BME280;3848;42.016;23.098;2023-07-13T08:20:14;97299.50;;;29.62;73.13
7614;BME280;3848;42.016;23.098;2023-07-13T08:22:41;97311.38;;;29.87;67.44
7614;BME280;3848;42.016;23.098;2023-07-13T08:25:08;97300.59;;;30.01;67.52
7614;BME280;3848;42.016;23.098;2023-07-13T08:27:35;97288.38;;;30.11;68.73
7614;BME280;3848;42.016;23.098;2023-07-13T08:30:04;97292.91;;;30.40;71.95
7614;BME280;3848;42.016;23.098;2023-07-13T08:32:33;97291.81;;;30.63;74.10
7614;BME280;3848;42.016;23.098;2023-07-13T08:35:00;97287.06;;;30.87;65.74
7614;BME280;3848;42.016;23.098;2023-07-13T08:37:27;97270.34;;;30.88;66.71
7614;BME280;3848;42.016;23.098;2023-07-13T08:39:53;97275.75;;;31.16;65.31
7614;BME280;3848;42.016;23.098;2023-07-13T08:42:30;97275.00;;;31.44;67.61
7614;BME280;3848;42.016;23.098;2023-07-13T08:45:06;97260.56;;;31.58;64.64
7614;BME280;3848;42.016;23.098;2023-07-13T08:47:35;97273.28;;;31.92;61.46
7614;BME280;3848;42.016;23.098;2023-07-13T08:50:05;97269.06;;;32.18;57.88
7614;BME280;3848;42.016;23.098;2023-07-13T08:52:39;97265.47;;;32.29;57.76
7614;BME280;3848;42.016;23.098;2023-07-13T08:55:12;97269.41;;;32.42;58.93
7614;BME280;3848;42.016;23.098;2023-07-13T08:57:42;97268.34;;;32.63;58.63
7614;BME280;3848;42.016;23.098;2023-07-13T09:00:12;97264.13;;;32.80;57.05
7614;BME280;3848;42.016;23.098;2023-07-13T09:02:45;97250.31;;;32.95;56.06
7614;BME280;3848;42.016;23.098;2023-07-13T09:05:15;97246.47;;;33.25;56.92
7614;BME280;3848;42.016;23.098;2023-07-13T09:07:57;97252.59;;;33.44;52.45
7614;BME280;3848;42.016;23.098;2023-07-13T09:10:30;97229.53;;;33.63;54.80
7614;BME280;3848;42.016;23.098;2023-07-13T09:13:11;97235.50;;;33.91;52.21
7614;BME280;3848;42.016;23.098;2023-07-13T09:15:45;97235.66;;;34.16;55.03
7614;BME280;3848;42.016;23.098;2023-07-13T09:18:16;97238.13;;;34.43;54.44
7614;BME280;3848;42.016;23.098;2023-07-13T09:20:49;97230.25;;;34.60;52.25
7614;BME280;3848;42.016;23.098;2023-07-13T09:23:19;97213.97;;;34.80;50.81
7614;BME280;3848;42.016;23.098;2023-07-13T09:25:48;97218.16;;;35.15;49.10
7614;BME280;3848;42.016;23.098;2023-07-13T09:28:22;97215.22;;;35.27;47.87
7614;BME280;3848;42.016;23.098;2023-07-13T09:31:06;97176.88;;;35.14;46.68
7614;BME280;3848;42.016;23.098;2023-07-13T09:33:33;97196.75;;;35.43;50.13
7614;BME280;3848;42.016;23.098;2023-07-13T09:36:00;97196.69;;;35.75;50.63
7614;BME280;3848;42.016;23.098;2023-07-13T09:38:29;97184.13;;;35.86;46.60
7614;BME280;3848;42.016;23.098;2023-07-13T09:41:17;97181.41;;;36.10;46.84
7614;BME280;3848;42.016;23.098;2023-07-13T09:44:02;97186.63;;;36.34;44.90
7614;BME280;3848;42.016;23.098;2023-07-13T09:46:35;97184.19;;;36.56;45.07
7614;BME280;3848;42.016;23.098;2023-07-13T09:49:02;97176.59;;;36.84;46.37
7614;BME280;3848;42.016;23.098;2023-07-13T09:51:29;97178.84;;;37.18;45.85
7614;BME280;3848;42.016;23.098;2023-07-13T09:53:58;97165.16;;;37.52;43.82
7614;BME280;3848;42.016;23.098;2023-07-13T09:56:27;97162.28;;;37.76;42.03
7614;BME280;3848;42.016;23.098;2023-07-13T09:58:55;97163.09;;;37.92;40.30
7614;BME280;3848;42.016;23.098;2023-07-13T10:01:32;97159.78;;;38.04;42.34
7614;BME280;3848;42.016;23.098;2023-07-13T10:04:01;97161.44;;;38.35;39.92
7614;BME280;3848;42.016;23.098;2023-07-13T10:06:28;97159.88;;;38.40;41.20
7614;BME280;3848;42.016;23.098;2023-07-13T10:08:56;97154.78;;;38.60;37.57
7614;BME280;3848;42.016;23.098;2023-07-13T10:11:27;97155.53;;;38.54;36.92
7614;BME280;3848;42.016;23.098;2023-07-13T10:13:57;97169.06;;;38.59;36.69
7614;BME280;3848;42.016;23.098;2023-07-13T10:16:26;97175.75;;;38.91;39.50
7614;BME280;3848;42.016;23.098;2023-07-13T10:18:59;97159.13;;;39.25;36.43
7614;BME280;3848;42.016;23.098;2023-07-13T10:21:32;97154.19;;;39.50;34.83
7614;BME280;3848;42.016;23.098;2023-07-13T10:24:04;97141.66;;;39.72;36.18
7614;BME280;3848;42.016;23.098;2023-07-13T10:26:33;97148.44;;;40.09;35.52
7614;BME280;3848;42.016;23.098;2023-07-13T10:29:03;97145.97;;;40.42;35.64
7614;BME280;3848;42.016;23.098;2023-07-13T10:31:32;97146.63;;;40.71;36.21
7614;BME280;3848;42.016;23.098;2023-07-13T10:34:02;97142.75;;;40.80;33.54
7614;BME280;3848;42.016;23.098;2023-07-13T10:36:34;97137.06;;;40.83;33.34
7614;BME280;3848;42.016;23.098;2023-07-13T10:39:04;97141.38;;;41.04;33.92
7614;BME280;3848;42.016;23.098;2023-07-13T10:41:38;97138.94;;;41.29;34.65
7614;BME280;3848;42.016;23.098;2023-07-13T10:44:09;97136.63;;;41.59;33.26
7614;BME280;3848;42.016;23.098;2023-07-13T10:46:43;97134.13;;;41.84;31.95
7614;BME280;3848;42.016;23.098;2023-07-13T10:49:11;97131.06;;;41.87;32.13
7614;BME280;3848;42.016;23.098;2023-07-13T10:51:39;97121.41;;;41.92;32.52
7614;BME280;3848;42.016;23.098;2023-07-13T10:54:20;97118.84;;;42.17;34.04
7614;BME280;3848;42.016;23.098;2023-07-13T10:56:53;97113.78;;;42.41;30.04
7614;BME280;3848;42.016;23.098;2023-07-13T10:59:32;97110.75;;;42.37;31.33
7614;BME280;3848;42.016;23.098;2023-07-13T11:02:11;97110.22;;;42.15;30.12
7614;BME280;3848;42.016;23.098;2023-07-13T11:04:42;97102.88;;;41.97;30.45
7614;BME280;3848;42.016;23.098;2023-07-13T11:07:20;97099.88;;;41.74;29.98
7614;BME280;3848;42.016;23.098;2023-07-13T11:09:50;97098.44;;;40.72;31.30
7614;BME280;3848;42.016;23.098;2023-07-13T11:15:11;97090.41;;;40.59;32.05
7614;BME280;3848;42.016;23.098;2023-07-13T11:17:49;97073.00;;;40.57;31.74
7614;BME280;3848;42.016;23.098;2023-07-13T11:20:31;97083.25;;;40.60;32.38
7614;BME280;3848;42.016;23.098;2023-07-13T11:23:29;97067.28;;;40.73;33.11
7614;BME280;3848;42.016;23.098;2023-07-13T11:25:56;97070.97;;;40.72;32.68
7614;BME280;3848;42.016;23.098;2023-07-13T11:28:27;97074.22;;;40.54;32.58
7614;BME280;3848;42.016;23.098;2023-07-13T11:31:02;97074.97;;;40.28;32.47
7614;BME280;3848;42.016;23.098;2023-07-13T11:33:52;97079.16;;;40.70;32.98
7614;BME280;3848;42.016;23.098;2023-07-13T11:36:20;97079.44;;;40.82;31.88
7614;BME280;3848;42.016;23.098;2023-07-13T11:38:58;97074.28;;;41.13;31.64
7614;BME280;3848;42.016;23.098;2023-07-13T11:41:27;97066.03;;;41.22;31.65
7614;BME280;3848;42.016;23.098;2023-07-13T11:44:05;97068.31;;;41.38;32.23
7614;BME280;3848;42.016;23.098;2023-07-13T11:46:33;97050.09;;;41.28;31.62
7614;BME280;3848;42.016;23.098;2023-07-13T11:49:00;97048.22;;;41.35;30.80
7614;BME280;3848;42.016;23.098;2023-07-13T11:51:29;97055.41;;;41.35;29.81
7614;BME280;3848;42.016;23.098;2023-07-13T11:54:04;97044.34;;;41.25;28.46
7614;BME280;3848;42.016;23.098;2023-07-13T11:56:32;97048.41;;;41.40;28.94
7614;BME280;3848;42.016;23.098;2023-07-13T11:59:04;97048.41;;;41.47;29.17
7614;BME280;3848;42.016;23.098;2023-07-13T12:01:32;97051.63;;;41.62;30.76
7614;BME280;3848;42.016;23.098;2023-07-13T12:04:01;97032.94;;;41.62;30.70
7614;BME280;3848;42.016;23.098;2023-07-13T12:06:30;97046.56;;;41.99;30.31
7614;BME280;3848;42.016;23.098;2023-07-13T12:09:01;97034.41;;;41.52;28.84
7614;BME280;3848;42.016;23.098;2023-07-13T12:11:29;97025.91;;;41.88;29.73
7614;BME280;3848;42.016;23.098;2023-07-13T12:13:56;97019.22;;;42.03;27.12
7614;BME280;3848;42.016;23.098;2023-07-13T12:16:28;97019.59;;;41.69;30.57
7614;BME280;3848;42.016;23.098;2023-07-13T12:18:59;97009.97;;;42.13;28.20
7614;BME280;3848;42.016;23.098;2023-07-13T12:21:30;97009.84;;;42.33;28.23
7614;BME280;3848;42.016;23.098;2023-07-13T12:23:59;97008.16;;;42.38;29.19
7614;BME280;3848;42.016;23.098;2023-07-13T12:26:29;97002.84;;;42.31;28.20
7614;BME280;3848;42.016;23.098;2023-07-13T12:28:58;97005.44;;;42.13;29.49
7614;BME280;3848;42.016;23.098;2023-07-13T12:31:31;96996.47;;;41.94;29.42
7614;BME280;3848;42.016;23.098;2023-07-13T12:34:00;96991.44;;;42.18;29.06
7614;BME280;3848;42.016;23.098;2023-07-13T12:36:32;96993.31;;;42.49;30.47
7614;BME280;3848;42.016;23.098;2023-07-13T12:39:05;96985.75;;;42.08;29.32
7614;BME280;3848;42.016;23.098;2023-07-13T12:41:37;96984.66;;;42.15;30.44
7614;BME280;3848;42.016;23.098;2023-07-13T12:44:04;96982.31;;;41.94;31.64
7614;BME280;3848;42.016;23.098;2023-07-13T12:46:33;96975.44;;;42.11;29.98
7614;BME280;3848;42.016;23.098;2023-07-13T12:49:00;96977.91;;;42.06;30.79
7614;BME280;3848;42.016;23.098;2023-07-13T12:51:27;96973.44;;;42.07;29.54
7614;BME280;3848;42.016;23.098;2023-07-13T12:54:06;96979.41;;;42.34;29.70
7614;BME280;3848;42.016;23.098;2023-07-13T12:56:34;96971.53;;;42.39;29.21
7614;BME280;3848;42.016;23.098;2023-07-13T12:59:03;96967.31;;;42.24;29.26
7614;BME280;3848;42.016;23.098;2023-07-13T13:01:33;96926.72;;;41.78;29.43
7614;BME280;3848;42.016;23.098;2023-07-13T13:04:03;96970.59;;;41.95;30.43
7614;BME280;3848;42.016;23.098;2023-07-13T13:06:32;96976.13;;;42.31;29.84
7614;BME280;3848;42.016;23.098;2023-07-13T13:09:01;96958.94;;;42.52;30.22
7614;BME280;3848;42.016;23.098;2023-07-13T13:11:31;96973.91;;;42.28;29.51
7614;BME280;3848;42.016;23.098;2023-07-13T13:13:59;96967.59;;;42.16;31.48
7614;BME280;3848;42.016;23.098;2023-07-13T13:16:30;96961.72;;;42.33;32.05